Time,TemperatureF,DewpointF,PressureIn,WindDirection,WindDirectionDegrees,WindSpeedMPH,WindSpeedGustMPH,Humidity,HourlyPrecipIn,Conditions,Clouds,dailyrainin,SoftwareType,DateUTC
2013-03-24 00:00:00,71.5,67.8,29.72,SE,145,0.0,3.0,88,0.00,,,0.00,Wunderground v.1.15,2013-03-24 04:00:00,
2013-03-24 00:01:00,71.5,67.8,29.71,SE,145,0.0,3.0,88,0.00,,,0.00,Wunderground v.1.15,2013-03-24 04:01:00,
2013-03-24 00:02:00,71.5,67.8,29.71,SE,145,0.0,3.0,88,0.00,,,0.00,Wunderground v.1.15,2013-03-24 04:02:00,
2013-03-24 00:03:00,71.5,67.8,29.71,SE,145,0.0,3.0,88,0.00,,,0.00,Wunderground v.1.15,2013-03-24 04:03:00,
2013-03-24 00:09:00,71.5,67.8,29.71,SE,136,0.0,1.0,88,0.00,,,0.00,Wunderground v.1.15,2013-03-24 04:09:00,
2013-03-24 00:14:00,71.5,68.1,29.71,SE,126,0.0,1.0,89,0.00,,,0.00,Wunderground v.1.15,2013-03-24 04:14:00,
2013-03-24 00:19:00,71.6,68.2,29.71,SE,136,0.0,1.0,89,0.00,,,0.00,Wunderground v.1.15,2013-03-24 04:19:00,
2013-03-24 00:25:00,71.6,68.2,29.71,SE,131,0.0,1.0,89,0.00,,,0.00,Wunderground v.1.15,2013-03-24 04:25:00,
2013-03-24 00:31:00,71.6,68.2,29.71,SE,137,0.0,2.0,89,0.00,,,0.00,Wunderground v.1.15,2013-03-24 04:31:00,
2013-03-24 00:36:00,71.6,68.2,29.70,SE,138,0.0,2.0,89,0.00,,,0.00,Wunderground v.1.15,2013-03-24 04:36:00,
2013-03-24 00:41:00,71.6,68.2,29.70,SSE,147,0.0,1.0,89,0.00,,,0.00,Wunderground v.1.15,2013-03-24 04:41:00,
2013-03-24 00:47:00,71.6,68.2,29.70,SE,124,0.0,3.0,89,0.00,,,0.00,Wunderground v.1.15,2013-03-24 04:47:00,
2013-03-24 00:52:00,71.6,68.2,29.70,SE,137,0.0,1.0,89,0.00,,,0.00,Wunderground v.1.15,2013-03-24 04:52:00,
2013-03-24 00:58:00,71.8,68.4,29.70,SSE,155,0.0,0.0,89,0.00,,,0.00,Wunderground v.1.15,2013-03-24 04:58:00,
2013-03-24 01:03:00,71.8,68.4,29.69,SE,140,0.0,5.0,89,0.00,,,0.00,Wunderground v.1.15,2013-03-24 05:03:00,
2013-03-24 01:09:00,71.8,68.4,29.69,SSE,161,0.0,1.0,89,0.00,,,0.00,Wunderground v.1.15,2013-03-24 05:09:00,
2013-03-24 01:14:00,71.8,68.4,29.69,SSE,148,1.0,1.0,89,0.00,,,0.00,Wunderground v.1.15,2013-03-24 05:14:00,
2013-03-24 01:19:00,71.8,68.4,29.68,SSE,147,0.0,0.0,89,0.00,,,0.00,Wunderground v.1.15,2013-03-24 05:19:00,
2013-03-24 01:25:00,71.8,68.4,29.68,SE,141,0.0,2.0,89,0.00,,,0.00,Wunderground v.1.15,2013-03-24 05:25:00,
2013-03-24 01:30:00,71.6,68.2,29.68,SE,131,0.0,0.0,89,0.00,,,0.00,Wunderground v.1.15,2013-03-24 05:30:00,
2013-03-24 01:36:00,71.6,68.2,29.68,SE,140,0.0,5.0,89,0.00,,,0.00,Wunderground v.1.15,2013-03-24 05:36:00,
2013-03-24 01:41:00,71.6,68.2,29.68,SE,137,0.0,2.0,89,0.00,,,0.00,Wunderground v.1.15,2013-03-24 05:41:00,
2013-03-24 01:47:00,71.6,68.2,29.67,SE,124,0.0,4.0,89,0.00,,,0.00,Wunderground v.1.15,2013-03-24 05:47:00,
2013-03-24 01:52:00,71.6,68.5,29.67,SE,134,0.0,1.0,90,0.00,,,0.00,Wunderground v.1.15,2013-03-24 05:52:00,
2013-03-24 01:59:00,71.5,68.4,29.67,ESE,107,3.0,3.0,90,0.00,,,0.00,Wunderground v.1.15,2013-03-24 05:59:00,
2013-03-24 02:04:00,71.5,68.4,29.66,SE,137,0.0,3.0,90,0.00,,,0.00,Wunderground v.1.15,2013-03-24 06:04:00,
2013-03-24 02:09:00,71.3,68.2,29.66,SE,134,6.0,7.0,90,0.00,,,0.00,Wunderground v.1.15,2013-03-24 06:09:00,
2013-03-24 02:14:00,71.3,68.2,29.66,SSE,151,0.0,7.0,90,0.00,,,0.00,Wunderground v.1.15,2013-03-24 06:14:00,
2013-03-24 02:19:00,71.1,68.0,29.65,SE,128,0.0,1.0,90,0.00,,,0.00,Wunderground v.1.15,2013-03-24 06:19:00,
2013-03-24 02:24:00,71.1,68.0,29.65,SE,143,0.0,6.0,90,0.00,,,0.00,Wunderground v.1.15,2013-03-24 06:24:00,
2013-03-24 02:29:00,71.1,68.0,29.65,SSE,164,1.0,3.0,90,0.00,,,0.00,Wunderground v.1.15,2013-03-24 06:29:00,
2013-03-24 02:34:00,71.1,68.0,29.64,South,175,7.0,7.0,90,0.00,,,0.00,Wunderground v.1.15,2013-03-24 06:34:00,
2013-03-24 02:39:00,70.9,67.8,29.64,SSW,193,0.0,2.0,90,0.00,,,0.00,Wunderground v.1.15,2013-03-24 06:39:00,
2013-03-24 02:44:00,70.9,67.8,29.64,SE,131,0.0,2.0,90,0.00,,,0.00,Wunderground v.1.15,2013-03-24 06:44:00,
2013-03-24 02:49:00,70.9,67.8,29.64,SE,143,0.0,0.0,90,0.00,,,0.00,Wunderground v.1.15,2013-03-24 06:49:00,
2013-03-24 02:54:00,70.9,67.8,29.64,SE,136,0.0,0.0,90,0.00,,,0.00,Wunderground v.1.15,2013-03-24 06:54:00,
2013-03-24 02:59:00,70.8,67.7,29.64,SSE,168,0.0,0.0,90,0.00,,,0.00,Wunderground v.1.15,2013-03-24 06:59:00,
2013-03-24 03:04:00,70.8,67.7,29.63,SE,134,3.0,6.0,90,0.00,,,0.00,Wunderground v.1.15,2013-03-24 07:04:00,
2013-03-24 03:09:00,70.8,67.7,29.63,SE,130,0.0,0.0,90,0.00,,,0.00,Wunderground v.1.15,2013-03-24 07:09:00,
2013-03-24 03:14:00,70.8,67.7,29.63,SE,145,0.0,0.0,90,0.00,,,0.00,Wunderground v.1.15,2013-03-24 07:14:00,
2013-03-24 03:19:00,70.6,67.5,29.63,South,174,0.0,0.0,90,0.00,,,0.00,Wunderground v.1.15,2013-03-24 07:19:00,
2013-03-24 03:24:00,70.6,67.5,29.63,SSE,147,2.0,2.0,90,0.00,,,0.00,Wunderground v.1.15,2013-03-24 07:24:00,
2013-03-24 03:29:00,70.4,67.3,29.63,SE,145,0.0,0.0,90,0.00,,,0.00,Wunderground v.1.15,2013-03-24 07:29:00,
2013-03-24 03:34:00,70.4,67.3,29.62,SSE,151,0.0,3.0,90,0.00,,,0.00,Wunderground v.1.15,2013-03-24 07:34:00,
2013-03-24 03:39:00,70.4,67.3,29.62,SE,136,0.0,5.0,90,0.00,,,0.00,Wunderground v.1.15,2013-03-24 07:39:00,
2013-03-24 03:44:00,70.4,67.3,29.62,ESE,110,0.0,5.0,90,0.00,,,0.00,Wunderground v.1.15,2013-03-24 07:44:00,
2013-03-24 03:49:00,70.3,67.2,29.62,ESE,123,0.0,0.0,90,0.00,,,0.00,Wunderground v.1.15,2013-03-24 07:49:00,
2013-03-24 03:54:00,70.4,67.6,29.62,ESE,113,0.0,5.0,91,0.00,,,0.00,Wunderground v.1.15,2013-03-24 07:54:00,
2013-03-24 03:59:00,70.4,67.6,29.62,East,93,0.0,1.0,91,0.00,,,0.00,Wunderground v.1.15,2013-03-24 07:59:00,
2013-03-24 04:04:00,70.4,67.6,29.62,SE,127,0.0,6.0,91,0.00,,,0.00,Wunderground v.1.15,2013-03-24 08:04:00,
2013-03-24 04:09:00,70.4,67.6,29.62,SE,124,0.0,1.0,91,0.00,,,0.00,Wunderground v.1.15,2013-03-24 08:09:00,
2013-03-24 04:14:00,70.4,67.6,29.62,SE,130,0.0,7.0,91,0.00,,,0.00,Wunderground v.1.15,2013-03-24 08:14:00,
2013-03-24 04:19:00,70.6,67.8,29.61,SE,136,0.0,1.0,91,0.00,,,0.00,Wunderground v.1.15,2013-03-24 08:19:00,
2013-03-24 04:24:00,70.6,67.8,29.61,SE,124,0.0,6.0,91,0.00,,,0.00,Wunderground v.1.15,2013-03-24 08:24:00,
2013-03-24 04:29:00,70.6,67.8,29.61,SE,138,0.0,0.0,91,0.00,,,0.00,Wunderground v.1.15,2013-03-24 08:29:00,
2013-03-24 04:34:00,70.6,67.8,29.61,South,179,0.0,0.0,91,0.00,,,0.00,Wunderground v.1.15,2013-03-24 08:34:00,
2013-03-24 04:39:00,70.6,67.8,29.61,SE,140,0.0,0.0,91,0.00,,,0.00,Wunderground v.1.15,2013-03-24 08:39:00,
2013-03-24 04:44:00,70.6,67.8,29.61,SE,141,0.0,1.0,91,0.00,,,0.00,Wunderground v.1.15,2013-03-24 08:44:00,
2013-03-24 04:49:00,70.6,67.8,29.61,SSE,148,0.0,1.0,91,0.00,,,0.00,Wunderground v.1.15,2013-03-24 08:49:00,
2013-03-24 04:54:00,70.6,67.8,29.61,SE,141,0.0,1.0,91,0.00,,,0.00,Wunderground v.1.15,2013-03-24 08:54:00,
2013-03-24 04:59:00,70.6,67.8,29.61,SSE,162,0.0,2.0,91,0.00,,,0.00,Wunderground v.1.15,2013-03-24 08:59:00,
2013-03-24 05:04:00,70.4,67.6,29.60,SSE,150,0.0,3.0,91,0.00,,,0.00,Wunderground v.1.15,2013-03-24 09:04:00,
2013-03-24 05:09:00,70.4,67.6,29.60,ESE,117,0.0,0.0,91,0.00,,,0.00,Wunderground v.1.15,2013-03-24 09:09:00,
2013-03-24 05:14:00,70.4,67.6,29.60,SE,134,0.0,0.0,91,0.00,,,0.00,Wunderground v.1.15,2013-03-24 09:14:00,
2013-03-24 05:19:00,70.4,67.6,29.60,SE,145,0.0,0.0,91,0.00,,,0.00,Wunderground v.1.15,2013-03-24 09:19:00,
2013-03-24 05:24:00,70.4,67.6,29.60,SE,145,0.0,2.0,91,0.00,,,0.00,Wunderground v.1.15,2013-03-24 09:24:00,
2013-03-24 05:29:00,70.4,67.6,29.60,SE,145,0.0,0.0,91,0.00,,,0.00,Wunderground v.1.15,2013-03-24 09:29:00,
2013-03-24 05:34:00,70.4,67.6,29.59,SSE,150,0.0,1.0,91,0.00,,,0.00,Wunderground v.1.15,2013-03-24 09:34:00,
2013-03-24 05:39:00,70.4,67.6,29.59,SSE,152,0.0,0.0,91,0.00,,,0.00,Wunderground v.1.15,2013-03-24 09:39:00,
2013-03-24 05:44:00,70.4,67.6,29.59,SSE,154,1.0,2.0,91,0.00,,,0.00,Wunderground v.1.15,2013-03-24 09:44:00,
2013-03-24 05:49:00,70.3,67.5,29.59,SSE,160,0.0,0.0,91,0.00,,,0.00,Wunderground v.1.15,2013-03-24 09:49:00,
2013-03-24 05:55:00,70.3,67.5,29.59,SSE,148,0.0,3.0,91,0.00,,,0.00,Wunderground v.1.15,2013-03-24 09:55:00,
2013-03-24 06:00:00,70.3,67.5,29.59,SSE,150,0.0,5.0,91,0.00,,,0.00,Wunderground v.1.15,2013-03-24 10:00:00,
2013-03-24 06:05:00,70.3,67.5,29.58,SE,144,0.0,5.0,91,0.00,,,0.00,Wunderground v.1.15,2013-03-24 10:05:00,
2013-03-24 06:10:00,70.3,67.5,29.58,South,186,0.0,0.0,91,0.00,,,0.00,Wunderground v.1.15,2013-03-24 10:10:00,
2013-03-24 06:15:00,70.3,67.5,29.58,South,171,0.0,0.0,91,0.00,,,0.00,Wunderground v.1.15,2013-03-24 10:15:00,
2013-03-24 06:20:00,70.3,67.5,29.58,SE,145,0.0,1.0,91,0.00,,,0.00,Wunderground v.1.15,2013-03-24 10:20:00,
2013-03-24 06:25:00,70.3,67.5,29.58,SSE,157,0.0,3.0,91,0.00,,,0.00,Wunderground v.1.15,2013-03-24 10:25:00,
2013-03-24 06:30:00,70.4,67.6,29.58,SE,137,1.0,7.0,91,0.00,,,0.00,Wunderground v.1.15,2013-03-24 10:30:00,
2013-03-24 06:35:00,70.8,68.4,29.57,South,186,3.0,7.0,92,0.00,,,0.00,Wunderground v.1.15,2013-03-24 10:35:00,
2013-03-24 06:40:00,71.3,68.9,29.57,SE,141,5.0,5.0,92,0.00,,,0.00,Wunderground v.1.15,2013-03-24 10:40:00,
2013-03-24 06:45:00,71.6,69.2,29.57,SSE,150,2.0,7.0,92,0.00,,,0.00,Wunderground v.1.15,2013-03-24 10:45:00,
2013-03-24 06:50:00,71.8,69.0,29.58,South,172,0.0,2.0,91,0.00,,,0.00,Wunderground v.1.15,2013-03-24 10:50:00,
2013-03-24 06:55:00,72.0,69.2,29.58,SSE,157,6.0,14.0,91,0.00,,,0.00,Wunderground v.1.15,2013-03-24 10:55:00,
2013-03-24 07:00:00,72.1,69.3,29.58,South,191,0.0,12.0,91,0.00,,,0.00,Wunderground v.1.15,2013-03-24 11:00:00,
2013-03-24 07:05:00,72.1,69.3,29.58,SE,140,7.0,12.0,91,0.00,,,0.00,Wunderground v.1.15,2013-03-24 11:05:00,
2013-03-24 07:10:00,72.3,69.5,29.58,SSE,160,0.0,11.0,91,0.00,,,0.00,Wunderground v.1.15,2013-03-24 11:10:00,
2013-03-24 07:15:00,72.3,69.5,29.58,South,185,5.0,11.0,91,0.00,,,0.00,Wunderground v.1.15,2013-03-24 11:15:00,
2013-03-24 07:20:00,72.3,69.5,29.58,SSE,148,3.0,17.0,91,0.00,,,0.00,Wunderground v.1.15,2013-03-24 11:20:00,
2013-03-24 07:25:00,72.3,69.5,29.58,South,181,0.0,17.0,91,0.00,,,0.00,Wunderground v.1.15,2013-03-24 11:25:00,
2013-03-24 07:30:00,72.3,69.5,29.58,South,175,1.0,8.0,91,0.00,,,0.00,Wunderground v.1.15,2013-03-24 11:30:00,
2013-03-24 07:35:00,72.3,69.5,29.58,South,186,10.0,12.0,91,0.00,,,0.00,Wunderground v.1.15,2013-03-24 11:35:00,
2013-03-24 07:40:00,72.3,69.5,29.58,SSW,199,4.0,14.0,91,0.00,,,0.00,Wunderground v.1.15,2013-03-24 11:40:00,
2013-03-24 07:45:00,72.3,69.5,29.58,SSE,147,2.0,14.0,91,0.00,,,0.00,Wunderground v.1.15,2013-03-24 11:45:00,
2013-03-24 07:50:00,72.3,69.5,29.58,SSE,152,6.0,10.0,91,0.00,,,0.00,Wunderground v.1.15,2013-03-24 11:50:00,
2013-03-24 07:55:00,72.5,69.4,29.58,SSE,161,6.0,12.0,90,0.00,,,0.00,Wunderground v.1.15,2013-03-24 11:55:00,
2013-03-24 08:00:00,72.5,69.4,29.58,South,182,2.0,11.0,90,0.00,,,0.00,Wunderground v.1.15,2013-03-24 12:00:00,
2013-03-24 08:05:00,72.5,69.4,29.58,SSE,168,0.0,12.0,90,0.00,,,0.00,Wunderground v.1.15,2013-03-24 12:05:00,
2013-03-24 08:10:00,72.5,69.4,29.58,South,181,0.0,7.0,90,0.00,,,0.00,Wunderground v.1.15,2013-03-24 12:10:00,
2013-03-24 08:15:00,72.5,69.4,29.58,SW,216,0.0,18.0,90,0.00,,,0.00,Wunderground v.1.15,2013-03-24 12:15:00,
2013-03-24 08:20:00,72.7,69.6,29.58,SSE,165,3.0,18.0,90,0.00,,,0.00,Wunderground v.1.15,2013-03-24 12:20:00,
2013-03-24 08:25:00,72.8,69.7,29.58,SSE,160,7.0,18.0,90,0.00,,,0.00,Wunderground v.1.15,2013-03-24 12:25:00,
2013-03-24 08:30:00,73.0,69.9,29.58,SW,219,0.0,10.0,90,0.00,,,0.00,Wunderground v.1.15,2013-03-24 12:30:00,
2013-03-24 08:35:00,73.0,69.9,29.58,South,172,0.0,12.0,90,0.00,,,0.00,Wunderground v.1.15,2013-03-24 12:35:00,
2013-03-24 08:40:00,73.2,70.1,29.58,SSW,205,6.0,14.0,90,0.00,,,0.00,Wunderground v.1.15,2013-03-24 12:40:00,
2013-03-24 08:45:00,73.3,70.2,29.58,SE,145,10.0,14.0,90,0.00,,,0.00,Wunderground v.1.15,2013-03-24 12:45:00,
2013-03-24 08:50:00,73.5,70.4,29.60,South,171,8.0,12.0,90,0.00,,,0.00,Wunderground v.1.15,2013-03-24 12:50:00,
2013-03-24 08:56:00,73.5,70.1,29.60,South,169,12.0,12.0,89,0.00,,,0.00,Wunderground v.1.15,2013-03-24 12:56:00,
2013-03-24 09:01:00,73.7,70.3,29.62,SW,215,13.0,13.0,89,0.00,,,0.00,Wunderground v.1.15,2013-03-24 13:01:00,
2013-03-24 09:06:00,73.7,70.3,29.62,WSW,247,8.0,13.0,89,0.00,,,0.00,Wunderground v.1.15,2013-03-24 13:06:00,
2013-03-24 09:11:00,73.9,70.5,29.62,SW,215,6.0,8.0,89,0.00,,,0.00,Wunderground v.1.15,2013-03-24 13:11:00,
2013-03-24 09:17:00,73.9,70.5,29.63,South,191,6.0,13.0,89,0.00,,,0.00,Wunderground v.1.15,2013-03-24 13:17:00,
2013-03-24 09:22:00,73.9,70.5,29.63,South,176,0.0,7.0,89,0.00,,,0.00,Wunderground v.1.15,2013-03-24 13:22:00,
2013-03-24 09:27:00,73.9,70.5,29.63,South,185,10.0,13.0,89,0.00,,,0.00,Wunderground v.1.15,2013-03-24 13:27:00,
2013-03-24 09:32:00,73.9,70.5,29.63,SE,145,4.0,17.0,89,0.00,,,0.00,Wunderground v.1.15,2013-03-24 13:32:00,
2013-03-24 09:37:00,73.9,70.5,29.63,South,182,6.0,17.0,89,0.00,,,0.00,Wunderground v.1.15,2013-03-24 13:37:00,
2013-03-24 09:43:00,73.9,70.5,29.63,SSW,199,0.0,12.0,89,0.00,,,0.00,Wunderground v.1.15,2013-03-24 13:43:00,
2013-03-24 09:48:00,73.7,70.3,29.64,South,189,6.0,13.0,89,0.00,,,0.00,Wunderground v.1.15,2013-03-24 13:48:00,
2013-03-24 09:53:00,73.7,70.3,29.64,SW,215,8.0,14.0,89,0.00,,,0.00,Wunderground v.1.15,2013-03-24 13:53:00,
2013-03-24 09:58:00,73.7,70.3,29.64,SSW,198,0.0,16.0,89,0.00,,,0.00,Wunderground v.1.15,2013-03-24 13:58:00,
2013-03-24 10:03:00,73.5,70.1,29.64,SW,236,0.0,10.0,89,0.00,,,0.00,Wunderground v.1.15,2013-03-24 14:03:00,
2013-03-24 10:08:00,73.5,70.1,29.64,SSE,162,0.0,17.0,89,0.00,,,0.00,Wunderground v.1.15,2013-03-24 14:08:00,
2013-03-24 10:13:00,73.7,70.3,29.64,SSW,203,7.0,12.0,89,0.00,,,0.00,Wunderground v.1.15,2013-03-24 14:13:00,
2013-03-24 10:18:00,73.9,70.5,29.64,WSW,248,3.0,16.0,89,0.00,,,0.00,Wunderground v.1.15,2013-03-24 14:18:00,
2013-03-24 10:23:00,74.2,70.7,29.64,South,175,0.0,13.0,89,0.00,,,0.00,Wunderground v.1.15,2013-03-24 14:23:00,
2013-03-24 10:28:00,74.4,70.9,29.64,SSE,158,6.0,18.0,89,0.00,,,0.00,Wunderground v.1.15,2013-03-24 14:28:00,
2013-03-24 10:33:00,74.6,71.1,29.65,SSW,202,0.0,18.0,89,0.00,,,0.00,Wunderground v.1.15,2013-03-24 14:33:00,
2013-03-24 10:38:00,74.7,71.2,29.65,SSW,193,6.0,18.0,89,0.00,,,0.00,Wunderground v.1.15,2013-03-24 14:38:00,
2013-03-24 10:43:00,74.9,71.1,29.65,South,189,0.0,12.0,88,0.00,,,0.00,Wunderground v.1.15,2013-03-24 14:43:00,
2013-03-24 10:48:00,75.1,71.3,29.65,SE,130,2.0,12.0,88,0.00,,,0.00,Wunderground v.1.15,2013-03-24 14:48:00,
2013-03-24 10:53:00,75.4,71.6,29.65,SSE,150,6.0,17.0,88,0.00,,,0.00,Wunderground v.1.15,2013-03-24 14:53:00,
2013-03-24 10:58:00,76.0,72.2,29.65,SSW,195,12.0,17.0,88,0.00,,,0.00,Wunderground v.1.15,2013-03-24 14:58:00,
2013-03-24 11:03:00,76.5,72.7,29.63,SSW,198,7.0,12.0,88,0.00,,,0.00,Wunderground v.1.15,2013-03-24 15:03:00,
2013-03-24 11:08:00,77.2,73.0,29.63,SSW,198,10.0,13.0,87,0.00,,,0.00,Wunderground v.1.15,2013-03-24 15:08:00,
2013-03-24 11:13:00,77.6,73.1,29.63,SSW,203,6.0,20.0,86,0.00,,,0.00,Wunderground v.1.15,2013-03-24 15:13:00,
2013-03-24 11:18:00,77.9,73.0,29.64,SSW,199,5.0,20.0,85,0.00,,,0.00,Wunderground v.1.15,2013-03-24 15:18:00,
2013-03-24 11:23:00,77.7,72.8,29.64,SSE,150,8.0,18.0,85,0.00,,,0.00,Wunderground v.1.15,2013-03-24 15:23:00,
2013-03-24 11:28:00,78.1,73.2,29.64,South,185,6.0,18.0,85,0.00,,,0.00,Wunderground v.1.15,2013-03-24 15:28:00,
2013-03-24 11:33:00,78.5,73.3,29.63,SSW,209,0.0,12.0,84,0.00,,,0.00,Wunderground v.1.15,2013-03-24 15:33:00,
2013-03-24 11:38:00,78.8,73.6,29.63,SSE,167,12.0,13.0,84,0.00,,,0.00,Wunderground v.1.15,2013-03-24 15:38:00,
2013-03-24 11:43:00,79.0,73.7,29.63,SSE,160,1.0,14.0,84,0.00,,,0.00,Wunderground v.1.15,2013-03-24 15:43:00,
2013-03-24 11:48:00,79.2,73.9,29.64,SSW,195,7.0,14.0,84,0.00,,,0.00,Wunderground v.1.15,2013-03-24 15:48:00,
2013-03-24 11:53:00,79.4,73.8,29.64,SE,145,0.0,18.0,83,0.00,,,0.00,Wunderground v.1.15,2013-03-24 15:53:00,
2013-03-24 11:58:00,79.8,73.8,29.64,South,186,2.0,18.0,82,0.00,,,0.00,Wunderground v.1.15,2013-03-24 15:58:00,
2013-03-24 12:03:00,79.9,73.9,29.63,South,172,12.0,17.0,82,0.00,,,0.00,Wunderground v.1.15,2013-03-24 16:03:00,
2013-03-24 12:08:00,79.8,73.4,29.63,SSE,165,11.0,17.0,81,0.00,,,0.00,Wunderground v.1.15,2013-03-24 16:08:00,
2013-03-24 12:13:00,79.6,73.3,29.63,WSW,239,6.0,10.0,81,0.00,,,0.00,Wunderground v.1.15,2013-03-24 16:13:00,
2013-03-24 12:18:00,79.6,73.3,29.63,South,179,0.0,14.0,81,0.00,,,0.00,Wunderground v.1.15,2013-03-24 16:18:00,
2013-03-24 12:23:00,79.4,73.1,29.63,SSW,193,5.0,9.0,81,0.00,,,0.00,Wunderground v.1.15,2013-03-24 16:23:00,
2013-03-24 12:28:00,79.2,72.9,29.63,SW,223,13.0,19.0,81,0.00,,,0.00,Wunderground v.1.15,2013-03-24 16:28:00,
2013-03-24 12:33:00,78.8,72.5,29.63,SSW,212,5.0,12.0,81,0.00,,,0.00,Wunderground v.1.15,2013-03-24 16:33:00,
2013-03-24 12:39:00,78.6,72.3,29.63,SSE,161,3.0,13.0,81,0.00,,,0.00,Wunderground v.1.15,2013-03-24 16:39:00,
2013-03-24 12:44:00,78.6,72.3,29.63,South,178,7.0,14.0,81,0.00,,,0.00,Wunderground v.1.15,2013-03-24 16:44:00,
2013-03-24 12:49:00,78.6,72.3,29.62,SSE,165,0.0,14.0,81,0.00,,,0.00,Wunderground v.1.15,2013-03-24 16:49:00,
2013-03-24 12:54:00,78.3,72.0,29.62,SSE,151,10.0,12.0,81,0.00,,,0.00,Wunderground v.1.15,2013-03-24 16:54:00,
2013-03-24 12:59:00,78.1,71.8,29.62,SE,138,13.0,13.0,81,0.00,,,0.00,Wunderground v.1.15,2013-03-24 16:59:00,
2013-03-24 13:04:00,77.7,71.4,29.61,SW,222,4.0,11.0,81,0.00,,,0.00,Wunderground v.1.15,2013-03-24 17:04:00,
2013-03-24 13:09:00,77.6,71.7,29.61,SSE,162,5.0,13.0,82,0.00,,,0.00,Wunderground v.1.15,2013-03-24 17:09:00,
2013-03-24 13:14:00,77.4,71.5,29.61,SSW,200,0.0,14.0,82,0.00,,,0.00,Wunderground v.1.15,2013-03-24 17:14:00,
2013-03-24 13:19:00,77.4,71.5,29.58,SW,230,11.0,14.0,82,0.00,,,0.00,Wunderground v.1.15,2013-03-24 17:19:00,
2013-03-24 13:24:00,77.4,71.5,29.58,SSW,205,0.0,16.0,82,0.00,,,0.00,Wunderground v.1.15,2013-03-24 17:24:00,
2013-03-24 13:29:00,77.4,71.5,29.58,SW,226,10.0,16.0,82,0.00,,,0.00,Wunderground v.1.15,2013-03-24 17:29:00,
2013-03-24 13:34:00,77.4,71.5,29.58,SE,140,2.0,14.0,82,0.00,,,0.00,Wunderground v.1.15,2013-03-24 17:34:00,
2013-03-24 13:39:00,77.4,71.5,29.58,SSW,202,0.0,17.0,82,0.00,,,0.00,Wunderground v.1.15,2013-03-24 17:39:00,
2013-03-24 13:44:00,77.4,71.5,29.58,SSW,192,0.0,13.0,82,0.00,,,0.00,Wunderground v.1.15,2013-03-24 17:44:00,
2013-03-24 13:49:00,77.4,71.5,29.58,SSE,152,7.0,13.0,82,0.00,,,0.00,Wunderground v.1.15,2013-03-24 17:49:00,
2013-03-24 13:54:00,77.4,71.5,29.58,South,172,5.0,19.0,82,0.00,,,0.00,Wunderground v.1.15,2013-03-24 17:54:00,
2013-03-24 13:59:00,77.4,71.5,29.58,South,186,0.0,19.0,82,0.00,,,0.00,Wunderground v.1.15,2013-03-24 17:59:00,
2013-03-24 14:04:00,77.4,71.5,29.57,North,353,8.0,15.0,82,0.00,,,0.00,Wunderground v.1.15,2013-03-24 18:04:00,
2013-03-24 14:09:00,77.4,71.5,29.57,SSW,206,2.0,16.0,82,0.00,,,0.00,Wunderground v.1.15,2013-03-24 18:09:00,
2013-03-24 14:14:00,77.4,71.5,29.57,SW,219,8.0,20.0,82,0.00,,,0.00,Wunderground v.1.15,2013-03-24 18:14:00,
2013-03-24 14:19:00,77.2,71.3,29.57,SE,134,1.0,5.0,82,0.00,,,0.00,Wunderground v.1.15,2013-03-24 18:19:00,
2013-03-24 14:24:00,77.0,71.1,29.57,SSW,193,13.0,22.0,82,0.00,,,0.00,Wunderground v.1.15,2013-03-24 18:24:00,
2013-03-24 14:29:00,76.8,71.2,29.57,South,179,0.0,6.0,83,0.00,,,0.00,Wunderground v.1.15,2013-03-24 18:29:00,
2013-03-24 14:34:00,76.7,71.1,29.56,SW,234,0.0,10.0,83,0.00,,,0.00,Wunderground v.1.15,2013-03-24 18:34:00,
2013-03-24 14:39:00,76.7,71.1,29.56,SW,232,11.0,11.0,83,0.00,,,0.00,Wunderground v.1.15,2013-03-24 18:39:00,
2013-03-24 14:44:00,76.5,71.3,29.56,SW,224,6.0,14.0,84,0.00,,,0.00,Wunderground v.1.15,2013-03-24 18:44:00,
2013-03-24 14:49:00,76.3,71.1,29.57,WNW,294,0.0,6.0,84,0.00,,,0.00,Wunderground v.1.15,2013-03-24 18:49:00,
2013-03-24 14:54:00,76.1,70.9,29.57,WSW,250,9.0,17.0,84,0.00,,,0.00,Wunderground v.1.15,2013-03-24 18:54:00,
2013-03-24 14:59:00,76.0,70.8,29.57,SE,144,4.0,7.0,84,0.00,,,0.00,Wunderground v.1.15,2013-03-24 18:59:00,
2013-03-24 15:04:00,76.0,70.8,29.57,SW,226,8.0,21.0,84,0.00,,,0.00,Wunderground v.1.15,2013-03-24 19:04:00,
2013-03-24 15:09:00,76.0,70.8,29.57,South,188,0.0,6.0,84,0.00,,,0.00,Wunderground v.1.15,2013-03-24 19:09:00,
2013-03-24 15:14:00,76.1,70.9,29.57,South,171,0.0,17.0,84,0.00,,,0.00,Wunderground v.1.15,2013-03-24 19:14:00,
2013-03-24 15:19:00,76.1,70.9,29.57,SSW,199,12.0,14.0,84,0.00,,,0.00,Wunderground v.1.15,2013-03-24 19:19:00,
2013-03-24 15:24:00,76.1,70.9,29.57,SSE,148,0.0,21.0,84,0.00,,,0.00,Wunderground v.1.15,2013-03-24 19:24:00,
2013-03-24 15:29:00,76.3,71.1,29.57,South,179,6.0,14.0,84,0.00,,,0.00,Wunderground v.1.15,2013-03-24 19:29:00,
2013-03-24 15:34:00,76.7,71.5,29.56,SSW,208,7.0,16.0,84,0.00,,,0.00,Wunderground v.1.15,2013-03-24 19:34:00,
2013-03-24 15:39:00,77.2,72.0,29.56,SSW,198,2.0,14.0,84,0.00,,,0.00,Wunderground v.1.15,2013-03-24 19:39:00,
2013-03-24 15:44:00,77.6,72.0,29.56,SSW,213,5.0,14.0,83,0.00,,,0.00,Wunderground v.1.15,2013-03-24 19:44:00,
2013-03-24 15:49:00,77.7,72.1,29.56,SE,143,11.0,11.0,83,0.00,,,0.00,Wunderground v.1.15,2013-03-24 19:49:00,
2013-03-24 15:54:00,78.1,72.2,29.56,ESE,116,0.0,18.0,82,0.00,,,0.00,Wunderground v.1.15,2013-03-24 19:54:00,
2013-03-24 15:59:00,78.3,72.0,29.56,SE,131,0.0,5.0,81,0.00,,,0.00,Wunderground v.1.15,2013-03-24 19:59:00,
2013-03-24 16:04:00,78.3,72.0,29.55,SSW,203,6.0,18.0,81,0.00,,,0.00,Wunderground v.1.15,2013-03-24 20:04:00,
2013-03-24 16:09:00,78.3,72.0,29.55,SSW,205,0.0,5.0,81,0.00,,,0.00,Wunderground v.1.15,2013-03-24 20:09:00,
2013-03-24 16:15:00,78.3,72.0,29.55,SSW,205,6.0,19.0,81,0.00,,,0.00,Wunderground v.1.15,2013-03-24 20:15:00,
2013-03-24 16:20:00,78.1,71.8,29.55,SSW,206,10.0,13.0,81,0.00,,,0.00,Wunderground v.1.15,2013-03-24 20:20:00,
2013-03-24 16:25:00,78.1,71.4,29.55,South,179,7.0,17.0,80,0.00,,,0.00,Wunderground v.1.15,2013-03-24 20:25:00,
2013-03-24 16:30:00,78.1,71.4,29.55,South,189,0.0,4.0,80,0.00,,,0.00,Wunderground v.1.15,2013-03-24 20:30:00,
2013-03-24 16:35:00,77.9,71.2,29.55,WSW,244,0.0,13.0,80,0.00,,,0.00,Wunderground v.1.15,2013-03-24 20:35:00,
2013-03-24 16:40:00,77.9,71.6,29.55,SSE,167,0.0,7.0,81,0.00,,,0.00,Wunderground v.1.15,2013-03-24 20:40:00,
2013-03-24 16:45:00,77.7,71.4,29.55,WSW,240,0.0,11.0,81,0.00,,,0.00,Wunderground v.1.15,2013-03-24 20:45:00,
2013-03-24 16:50:00,77.4,71.1,29.55,SSW,212,0.0,18.0,81,0.00,,,0.00,Wunderground v.1.15,2013-03-24 20:50:00,
2013-03-24 16:55:00,77.0,70.7,29.55,SSE,164,2.0,18.0,81,0.00,,,0.00,Wunderground v.1.15,2013-03-24 20:55:00,
2013-03-24 17:00:00,76.7,70.1,29.55,WSW,239,0.0,5.0,80,0.00,,,0.00,Wunderground v.1.15,2013-03-24 21:00:00,
2013-03-24 17:05:00,76.3,70.0,29.55,SSW,213,3.0,8.0,81,0.00,,,0.00,Wunderground v.1.15,2013-03-24 21:05:00,
2013-03-24 17:10:00,76.0,69.7,29.55,WSW,253,0.0,5.0,81,0.00,,,0.00,Wunderground v.1.15,2013-03-24 21:10:00,
2013-03-24 17:15:00,75.6,69.4,29.55,SW,223,5.0,8.0,81,0.00,,,0.00,Wunderground v.1.15,2013-03-24 21:15:00,
2013-03-24 17:20:00,75.3,69.1,29.55,SSW,199,0.0,1.0,81,0.00,,,0.00,Wunderground v.1.15,2013-03-24 21:20:00,
2013-03-24 17:25:00,75.1,69.2,29.55,West,272,0.0,11.0,82,0.00,,,0.00,Wunderground v.1.15,2013-03-24 21:25:00,
2013-03-24 17:30:00,74.9,69.0,29.55,West,278,0.0,2.0,82,0.00,,,0.00,Wunderground v.1.15,2013-03-24 21:30:00,
2013-03-24 17:35:00,74.9,69.0,29.55,SSW,202,4.0,7.0,82,0.00,,,0.00,Wunderground v.1.15,2013-03-24 21:35:00,
2013-03-24 17:40:00,74.9,69.0,29.55,SSW,210,0.0,6.0,82,0.00,,,0.00,Wunderground v.1.15,2013-03-24 21:40:00,
2013-03-24 17:45:00,74.7,68.8,29.55,SW,229,0.0,12.0,82,0.00,,,0.00,Wunderground v.1.15,2013-03-24 21:45:00,
2013-03-24 17:50:00,74.6,69.1,29.55,SW,216,3.0,3.0,83,0.00,,,0.00,Wunderground v.1.15,2013-03-24 21:50:00,
2013-03-24 17:55:00,74.4,68.9,29.55,SW,220,0.0,9.0,83,0.00,,,0.00,Wunderground v.1.15,2013-03-24 21:55:00,
2013-03-24 18:00:00,74.2,68.7,29.55,WSW,243,0.0,1.0,83,0.00,,,0.00,Wunderground v.1.15,2013-03-24 22:00:00,
2013-03-24 18:05:00,74.0,68.5,29.55,SSW,213,0.0,8.0,83,0.00,,,0.00,Wunderground v.1.15,2013-03-24 22:05:00,
2013-03-24 18:10:00,74.0,68.9,29.55,WSW,248,0.0,3.0,84,0.00,,,0.00,Wunderground v.1.15,2013-03-24 22:10:00,
2013-03-24 18:15:00,73.9,68.8,29.55,West,277,2.0,6.0,84,0.00,,,0.00,Wunderground v.1.15,2013-03-24 22:15:00,
2013-03-24 18:20:00,73.7,68.6,29.56,South,188,0.0,1.0,84,0.00,,,0.00,Wunderground v.1.15,2013-03-24 22:20:00,
2013-03-24 18:25:00,73.7,68.6,29.56,SSW,195,0.0,5.0,84,0.00,,,0.00,Wunderground v.1.15,2013-03-24 22:25:00,
2013-03-24 18:30:00,73.5,68.4,29.56,SW,222,0.0,0.0,84,0.00,,,0.00,Wunderground v.1.15,2013-03-24 22:30:00,
2013-03-24 18:35:00,73.3,68.2,29.57,West,281,3.0,8.0,84,0.00,,,0.00,Wunderground v.1.15,2013-03-24 22:35:00,
2013-03-24 18:40:00,73.2,68.1,29.57,SW,217,0.0,5.0,84,0.00,,,0.00,Wunderground v.1.15,2013-03-24 22:40:00,
2013-03-24 18:45:00,73.2,68.1,29.57,SW,219,0.0,5.0,84,0.00,,,0.00,Wunderground v.1.15,2013-03-24 22:45:00,
2013-03-24 18:50:00,73.0,67.9,29.57,SSW,192,2.0,3.0,84,0.00,,,0.00,Wunderground v.1.15,2013-03-24 22:50:00,
2013-03-24 18:55:00,73.0,68.2,29.57,SW,234,2.0,7.0,85,0.00,,,0.00,Wunderground v.1.15,2013-03-24 22:55:00,
2013-03-24 19:00:00,73.0,68.2,29.57,SW,230,0.0,1.0,85,0.00,,,0.00,Wunderground v.1.15,2013-03-24 23:00:00,
2013-03-24 19:05:00,72.8,68.0,29.57,SSW,206,0.0,6.0,85,0.00,,,0.00,Wunderground v.1.15,2013-03-24 23:05:00,
2013-03-24 19:10:00,72.8,68.0,29.57,South,181,0.0,1.0,85,0.00,,,0.00,Wunderground v.1.15,2013-03-24 23:10:00,
2013-03-24 19:15:00,72.8,68.0,29.57,West,277,0.0,1.0,85,0.00,,,0.00,Wunderground v.1.15,2013-03-24 23:15:00,
2013-03-24 19:20:00,72.7,67.9,29.57,SW,222,0.0,0.0,85,0.00,,,0.00,Wunderground v.1.15,2013-03-24 23:20:00,
2013-03-24 19:25:00,72.7,68.3,29.57,West,272,0.0,1.0,86,0.00,,,0.00,Wunderground v.1.15,2013-03-24 23:25:00,
2013-03-24 19:30:00,72.5,68.1,29.57,SSW,202,3.0,3.0,86,0.00,,,0.00,Wunderground v.1.15,2013-03-24 23:30:00,
2013-03-24 19:35:00,72.3,67.9,29.58,SSW,196,0.0,6.0,86,0.00,,,0.00,Wunderground v.1.15,2013-03-24 23:35:00,
2013-03-24 19:40:00,72.1,67.7,29.58,SW,223,0.0,0.0,86,0.00,,,0.00,Wunderground v.1.15,2013-03-24 23:40:00,
2013-03-24 19:45:00,72.0,67.6,29.58,South,191,0.0,1.0,86,0.00,,,0.00,Wunderground v.1.15,2013-03-24 23:45:00,
2013-03-24 19:50:00,72.0,67.6,29.59,SW,215,0.0,0.0,86,0.00,,,0.00,Wunderground v.1.15,2013-03-24 23:50:00,
2013-03-24 19:55:00,71.8,67.4,29.59,SW,222,0.0,3.0,86,0.00,,,0.00,Wunderground v.1.15,2013-03-24 23:55:00,
2013-03-24 20:00:00,71.8,67.4,29.59,SW,229,0.0,0.0,86,0.00,,,0.00,Wunderground v.1.15,2013-03-25 00:00:00,
2013-03-24 20:05:00,71.8,67.7,29.60,NW,306,0.0,0.0,87,0.00,,,0.00,Wunderground v.1.15,2013-03-25 00:05:00,
2013-03-24 20:10:00,71.6,67.5,29.60,SW,215,0.0,0.0,87,0.00,,,0.00,Wunderground v.1.15,2013-03-25 00:10:00,
2013-03-24 20:15:00,71.6,67.5,29.60,SW,215,0.0,0.0,87,0.00,,,0.00,Wunderground v.1.15,2013-03-25 00:15:00,
2013-03-24 20:20:00,71.6,67.5,29.60,South,184,0.0,0.0,87,0.00,,,0.00,Wunderground v.1.15,2013-03-25 00:20:00,
2013-03-24 20:25:00,71.5,67.4,29.60,South,184,0.0,0.0,87,0.00,,,0.00,Wunderground v.1.15,2013-03-25 00:25:00,
2013-03-24 20:30:00,71.5,67.4,29.60,West,270,0.0,0.0,87,0.00,,,0.00,Wunderground v.1.15,2013-03-25 00:30:00,
2013-03-24 20:35:00,71.3,67.2,29.61,WNW,302,0.0,3.0,87,0.00,,,0.00,Wunderground v.1.15,2013-03-25 00:35:00,
2013-03-24 20:40:00,71.3,67.2,29.61,WNW,302,0.0,0.0,87,0.00,,,0.00,Wunderground v.1.15,2013-03-25 00:40:00,
2013-03-24 20:45:00,71.3,67.2,29.61,WNW,301,0.0,0.0,87,0.00,,,0.00,Wunderground v.1.15,2013-03-25 00:45:00,
2013-03-24 20:50:00,71.1,67.0,29.61,WNW,301,0.0,0.0,87,0.00,,,0.00,Wunderground v.1.15,2013-03-25 00:50:00,
2013-03-24 20:56:00,71.1,67.0,29.61,WNW,301,0.0,0.0,87,0.00,,,0.00,Wunderground v.1.15,2013-03-25 00:56:00,
2013-03-24 21:01:00,71.1,67.0,29.61,WNW,301,0.0,0.0,87,0.00,,,0.00,Wunderground v.1.15,2013-03-25 01:01:00,
2013-03-24 21:06:00,70.9,66.8,29.62,WNW,302,0.0,0.0,87,0.00,,,0.00,Wunderground v.1.15,2013-03-25 01:06:00,
2013-03-24 21:11:00,70.9,66.8,29.62,WNW,302,0.0,0.0,87,0.00,,,0.00,Wunderground v.1.15,2013-03-25 01:11:00,
2013-03-24 21:16:00,70.8,66.7,29.62,WNW,298,0.0,3.0,87,0.00,,,0.00,Wunderground v.1.15,2013-03-25 01:16:00,
2013-03-24 21:21:00,70.8,66.7,29.63,WNW,298,0.0,0.0,87,0.00,,,0.00,Wunderground v.1.15,2013-03-25 01:21:00,
2013-03-24 21:26:00,70.8,66.7,29.63,WNW,301,3.0,6.0,87,0.00,,,0.00,Wunderground v.1.15,2013-03-25 01:26:00,
2013-03-24 21:31:00,70.6,66.5,29.63,WNW,296,0.0,2.0,87,0.00,,,0.00,Wunderground v.1.15,2013-03-25 01:31:00,
2013-03-24 21:36:00,70.6,66.5,29.63,West,280,5.0,6.0,87,0.00,,,0.00,Wunderground v.1.15,2013-03-25 01:36:00,
2013-03-24 21:41:00,70.6,66.5,29.63,WSW,256,0.0,1.0,87,0.00,,,0.00,Wunderground v.1.15,2013-03-25 01:41:00,
2013-03-24 21:46:00,70.4,66.3,29.64,WNW,301,0.0,4.0,87,0.00,,,0.00,Wunderground v.1.15,2013-03-25 01:46:00,
2013-03-24 21:51:00,70.4,66.3,29.64,WNW,295,0.0,0.0,87,0.00,,,0.00,Wunderground v.1.15,2013-03-25 01:51:00,
2013-03-24 21:56:00,70.4,66.3,29.64,WNW,291,1.0,3.0,87,0.00,,,0.00,Wunderground v.1.15,2013-03-25 01:56:00,
2013-03-24 22:01:00,70.4,66.3,29.65,WSW,258,0.0,6.0,87,0.00,,,0.00,Wunderground v.1.15,2013-03-25 02:01:00,
2013-03-24 22:06:00,70.4,66.3,29.65,WNW,294,0.0,6.0,87,0.00,,,0.00,Wunderground v.1.15,2013-03-25 02:06:00,
2013-03-24 22:11:00,70.4,66.3,29.65,WNW,291,0.0,0.0,87,0.00,,,0.00,Wunderground v.1.15,2013-03-25 02:11:00,
2013-03-24 22:16:00,70.3,66.2,29.65,NW,305,0.0,0.0,87,0.00,,,0.00,Wunderground v.1.15,2013-03-25 02:16:00,
2013-03-24 22:21:00,70.3,66.2,29.65,West,281,0.0,0.0,87,0.00,,,0.00,Wunderground v.1.15,2013-03-25 02:21:00,
2013-03-24 22:26:00,70.3,66.2,29.65,West,281,0.0,1.0,87,0.00,,,0.00,Wunderground v.1.15,2013-03-25 02:26:00,
2013-03-24 22:32:00,70.1,66.0,29.65,West,281,0.0,0.0,87,0.00,,,0.00,Wunderground v.1.15,2013-03-25 02:32:00,
2013-03-24 22:37:00,69.9,65.9,29.65,West,281,0.0,0.0,87,0.00,,,0.00,Wunderground v.1.15,2013-03-25 02:37:00,
2013-03-24 22:42:00,69.8,65.8,29.65,West,281,0.0,0.0,87,0.00,,,0.00,Wunderground v.1.15,2013-03-25 02:42:00,
2013-03-24 22:47:00,69.6,65.6,29.65,West,281,0.0,0.0,87,0.00,,,0.00,Wunderground v.1.15,2013-03-25 02:47:00,
2013-03-24 22:52:00,69.4,65.0,29.65,West,281,0.0,0.0,86,0.00,,,0.00,Wunderground v.1.15,2013-03-25 02:52:00,
2013-03-24 22:57:00,69.4,65.4,29.65,West,281,0.0,0.0,87,0.00,,,0.00,Wunderground v.1.15,2013-03-25 02:57:00,
2013-03-24 23:02:00,69.1,64.7,29.65,West,281,0.0,0.0,86,0.00,,,0.00,Wunderground v.1.15,2013-03-25 03:02:00,
2013-03-24 23:07:00,69.1,65.1,29.65,West,281,0.0,0.0,87,0.00,,,0.00,Wunderground v.1.15,2013-03-25 03:07:00,
2013-03-24 23:12:00,68.9,64.9,29.65,West,281,0.0,0.0,87,0.00,,,0.00,Wunderground v.1.15,2013-03-25 03:12:00,
2013-03-24 23:17:00,68.8,64.8,29.65,West,281,0.0,0.0,87,0.00,,,0.00,Wunderground v.1.15,2013-03-25 03:17:00,
2013-03-24 23:22:00,68.6,64.6,29.65,West,281,0.0,0.0,87,0.00,,,0.00,Wunderground v.1.15,2013-03-25 03:22:00,
2013-03-24 23:27:00,68.6,64.6,29.65,SW,230,0.0,1.0,87,0.00,,,0.00,Wunderground v.1.15,2013-03-25 03:27:00,
2013-03-24 23:32:00,68.4,64.4,29.65,SW,230,0.0,0.0,87,0.00,,,0.00,Wunderground v.1.15,2013-03-25 03:32:00,
2013-03-24 23:37:00,68.4,64.4,29.65,SW,233,0.0,0.0,87,0.00,,,0.00,Wunderground v.1.15,2013-03-25 03:37:00,
2013-03-24 23:42:00,68.3,64.3,29.65,SW,233,0.0,0.0,87,0.00,,,0.00,Wunderground v.1.15,2013-03-25 03:42:00,
2013-03-24 23:47:00,68.1,64.1,29.65,SW,233,0.0,0.0,87,0.00,,,0.00,Wunderground v.1.15,2013-03-25 03:47:00,
2013-03-24 23:52:00,68.1,64.1,29.65,SSW,196,0.0,0.0,87,0.00,,,0.00,Wunderground v.1.15,2013-03-25 03:52:00,
2013-03-24 23:57:00,67.9,64.2,29.65,SSW,196,0.0,0.0,88,0.00,,,0.00,Wunderground v.1.15,2013-03-25 03:57:00,